sensor_id;sensor_type;location;lat;lon;timestamp;P1;durP1;ratioP1;P2;durP2;ratioP2
6955;SDS011;50345;51.136;16.886;2023-05-02T00:01:25;7.83;;;7.20;;
6955;SDS011;50345;51.136;16.886;2023-05-02T00:03:51;7.13;;;6.53;;
6955;SDS011;50345;51.136;16.886;2023-05-02T00:06:17;6.73;;;6.07;;
6955;SDS011;50345;51.136;16.886;2023-05-02T00:08:42;8.87;;;7.50;;
6955;SDS011;50345;51.136;16.886;2023-05-02T00:11:08;7.30;;;6.70;;
6955;SDS011;50345;51.136;16.886;2023-05-02T00:13:34;8.63;;;7.87;;
6955;SDS011;50345;51.136;16.886;2023-05-02T00:15:59;7.83;;;6.60;;
6955;SDS011;50345;51.136;16.886;2023-05-02T00:18:25;7.90;;;7.20;;
6955;SDS011;50345;51.136;16.886;2023-05-02T00:20:51;7.90;;;6.50;;
6955;SDS011;50345;51.136;16.886;2023-05-02T00:23:17;7.87;;;7.20;;
6955;SDS011;50345;51.136;16.886;2023-05-02T00:25:43;7.03;;;6.43;;
6955;SDS011;50345;51.136;16.886;2023-05-02T00:28:09;7.25;;;6.50;;
6955;SDS011;50345;51.136;16.886;2023-05-02T00:30:35;9.23;;;8.27;;
6955;SDS011;50345;51.136;16.886;2023-05-02T00:33:01;7.40;;;6.70;;
6955;SDS011;50345;51.136;16.886;2023-05-02T00:35:26;7.07;;;6.37;;
6955;SDS011;50345;51.136;16.886;2023-05-02T00:37:52;7.03;;;6.53;;
6955;SDS011;50345;51.136;16.886;2023-05-02T00:40:17;9.13;;;8.40;;
6955;SDS011;50345;51.136;16.886;2023-05-02T00:42:43;7.57;;;6.90;;
6955;SDS011;50345;51.136;16.886;2023-05-02T00:45:09;8.90;;;8.07;;
6955;SDS011;50345;51.136;16.886;2023-05-02T00:47:35;9.00;;;8.20;;
6955;SDS011;50345;51.136;16.886;2023-05-02T00:50:01;9.10;;;8.20;;
6955;SDS011;50345;51.136;16.886;2023-05-02T00:52:29;7.20;;;6.60;;
6955;SDS011;50345;51.136;16.886;2023-05-02T00:54:55;8.10;;;6.90;;
6955;SDS011;50345;51.136;16.886;2023-05-02T00:57:20;8.80;;;7.50;;
6955;SDS011;50345;51.136;16.886;2023-05-02T00:59:46;8.60;;;7.80;;
6955;SDS011;50345;51.136;16.886;2023-05-02T01:04:49;8.90;;;7.97;;
6955;SDS011;50345;51.136;16.886;2023-05-02T01:13:23;7.57;;;6.93;;
6955;SDS011;50345;51.136;16.886;2023-05-02T01:15:53;9.43;;;8.52;;
6955;SDS011;50345;51.136;16.886;2023-05-02T01:18:22;9.32;;;8.52;;
6955;SDS011;50345;51.136;16.886;2023-05-02T01:21:00;9.05;;;8.15;;
6955;SDS011;50345;51.136;16.886;2023-05-02T01:26:35;8.60;;;7.80;;
6955;SDS011;50345;51.136;16.886;2023-05-02T01:29:12;8.45;;;7.28;;
6955;SDS011;50345;51.136;16.886;2023-05-02T01:31:43;8.52;;;7.63;;
6955;SDS011;50345;51.136;16.886;2023-05-02T01:34:12;7.30;;;6.68;;
6955;SDS011;50345;51.136;16.886;2023-05-02T01:36:39;8.43;;;7.63;;
6955;SDS011;50345;51.136;16.886;2023-05-02T01:39:08;8.95;;;8.15;;
6955;SDS011;50345;51.136;16.886;2023-05-02T01:41:37;11.02;;;7.90;;
6955;SDS011;50345;51.136;16.886;2023-05-02T01:44:04;8.85;;;8.05;;
6955;SDS011;50345;51.136;16.886;2023-05-02T01:46:32;9.60;;;8.77;;
6955;SDS011;50345;51.136;16.886;2023-05-02T01:49:01;8.45;;;7.25;;
6955;SDS011;50345;51.136;16.886;2023-05-02T01:51:30;8.57;;;7.68;;
6955;SDS011;50345;51.136;16.886;2023-05-02T01:53:58;8.32;;;7.60;;
6955;SDS011;50345;51.136;16.886;2023-05-02T01:56:27;9.50;;;8.57;;
6955;SDS011;50345;51.136;16.886;2023-05-02T01:58:56;8.98;;;8.15;;
6955;SDS011;50345;51.136;16.886;2023-05-02T02:01:22;9.55;;;8.35;;
6955;SDS011;50345;51.136;16.886;2023-05-02T02:03:53;12.27;;;8.45;;
6955;SDS011;50345;51.136;16.886;2023-05-02T02:06:20;9.20;;;8.30;;
6955;SDS011;50345;51.136;16.886;2023-05-02T02:08:46;8.23;;;7.47;;
6955;SDS011;50345;51.136;16.886;2023-05-02T02:11:12;9.65;;;8.77;;
6955;SDS011;50345;51.136;16.886;2023-05-02T02:13:48;9.57;;;8.27;;
6955;SDS011;50345;51.136;16.886;2023-05-02T02:16:18;9.27;;;7.97;;
6955;SDS011;50345;51.136;16.886;2023-05-02T02:18:48;9.13;;;8.32;;
6955;SDS011;50345;51.136;16.886;2023-05-02T02:21:17;9.77;;;8.45;;
6955;SDS011;50345;51.136;16.886;2023-05-02T02:23:46;9.30;;;8.50;;
6955;SDS011;50345;51.136;16.886;2023-05-02T02:26:12;8.88;;;7.97;;
6955;SDS011;50345;51.136;16.886;2023-05-02T02:28:39;9.30;;;8.60;;
6955;SDS011;50345;51.136;16.886;2023-05-02T02:31:05;8.87;;;7.97;;
6955;SDS011;50345;51.136;16.886;2023-05-02T02:33:31;8.20;;;7.60;;
6955;SDS011;50345;51.136;16.886;2023-05-02T02:36:20;7.83;;;7.03;;
6955;SDS011;50345;51.136;16.886;2023-05-02T02:44:31;10.90;;;8.90;;
6955;SDS011;50345;51.136;16.886;2023-05-02T02:47:41;8.63;;;7.82;;
6955;SDS011;50345;51.136;16.886;2023-05-02T02:50:10;11.07;;;8.95;;
6955;SDS011;50345;51.136;16.886;2023-05-02T02:55:12;10.50;;;9.45;;
6955;SDS011;50345;51.136;16.886;2023-05-02T02:57:48;11.50;;;9.93;;
6955;SDS011;50345;51.136;16.886;2023-05-02T03:00:21;14.13;;;8.27;;
6955;SDS011;50345;51.136;16.886;2023-05-02T03:02:51;6.95;;;6.22;;
6955;SDS011;50345;51.136;16.886;2023-05-02T03:05:18;6.72;;;6.22;;
6955;SDS011;50345;51.136;16.886;2023-05-02T03:07:46;6.20;;;5.55;;
6955;SDS011;50345;51.136;16.886;2023-05-02T03:10:11;6.40;;;5.80;;
6955;SDS011;50345;51.136;16.886;2023-05-02T03:12:37;6.10;;;5.60;;
6955;SDS011;50345;51.136;16.886;2023-05-02T03:17:41;5.90;;;4.75;;
6955;SDS011;50345;51.136;16.886;2023-05-02T03:20:07;6.67;;;4.57;;
6955;SDS011;50345;51.136;16.886;2023-05-02T03:22:32;6.37;;;5.00;;
6955;SDS011;50345;51.136;16.886;2023-05-02T03:24:58;5.30;;;4.80;;
6955;SDS011;50345;51.136;16.886;2023-05-02T03:27:23;6.10;;;4.67;;
6955;SDS011;50345;51.136;16.886;2023-05-02T03:29:49;4.87;;;4.47;;
6955;SDS011;50345;51.136;16.886;2023-05-02T03:32:15;5.10;;;4.60;;
6955;SDS011;50345;51.136;16.886;2023-05-02T03:34:41;5.43;;;4.20;;
6955;SDS011;50345;51.136;16.886;2023-05-02T03:37:06;4.93;;;4.43;;
6955;SDS011;50345;51.136;16.886;2023-05-02T03:39:32;5.10;;;4.27;;
6955;SDS011;50345;51.136;16.886;2023-05-02T03:41:57;5.90;;;4.27;;
6955;SDS011;50345;51.136;16.886;2023-05-02T03:44:23;5.00;;;4.53;;
6955;SDS011;50345;51.136;16.886;2023-05-02T03:46:49;4.83;;;4.43;;
6955;SDS011;50345;51.136;16.886;2023-05-02T03:49:14;5.23;;;4.80;;
6955;SDS011;50345;51.136;16.886;2023-05-02T03:51:40;6.23;;;5.10;;
6955;SDS011;50345;51.136;16.886;2023-05-02T03:54:05;5.20;;;4.60;;
6955;SDS011;50345;51.136;16.886;2023-05-02T03:56:31;5.83;;;4.93;;
6955;SDS011;50345;51.136;16.886;2023-05-02T03:58:57;6.93;;;4.50;;
6955;SDS011;50345;51.136;16.886;2023-05-02T04:01:22;5.10;;;4.67;;
6955;SDS011;50345;51.136;16.886;2023-05-02T04:03:48;5.50;;;5.00;;
6955;SDS011;50345;51.136;16.886;2023-05-02T04:06:14;4.63;;;4.20;;
6955;SDS011;50345;51.136;16.886;2023-05-02T04:08:40;6.73;;;5.17;;
6955;SDS011;50345;51.136;16.886;2023-05-02T04:11:06;4.75;;;4.43;;
6955;SDS011;50345;51.136;16.886;2023-05-02T04:13:31;5.07;;;4.67;;
6955;SDS011;50345;51.136;16.886;2023-05-02T04:15:57;10.33;;;5.53;;
6955;SDS011;50345;51.136;16.886;2023-05-02T04:18:23;5.73;;;5.23;;
6955;SDS011;50345;51.136;16.886;2023-05-02T04:20:49;4.80;;;4.40;;
6955;SDS011;50345;51.136;16.886;2023-05-02T04:23:14;5.10;;;4.70;;
6955;SDS011;50345;51.136;16.886;2023-05-02T04:25:41;6.63;;;4.78;;
6955;SDS011;50345;51.136;16.886;2023-05-02T04:28:15;6.70;;;5.35;;
6955;SDS011;50345;51.136;16.886;2023-05-02T04:30:41;6.90;;;5.33;;
6955;SDS011;50345;51.136;16.886;2023-05-02T04:33:07;5.53;;;5.03;;
6955;SDS011;50345;51.136;16.886;2023-05-02T04:35:32;6.13;;;5.50;;
6955;SDS011;50345;51.136;16.886;2023-05-02T04:37:58;7.00;;;5.30;;
6955;SDS011;50345;51.136;16.886;2023-05-02T04:40:23;6.87;;;6.30;;
6955;SDS011;50345;51.136;16.886;2023-05-02T04:42:49;6.20;;;5.30;;
6955;SDS011;50345;51.136;16.886;2023-05-02T04:45:14;11.37;;;7.53;;
6955;SDS011;50345;51.136;16.886;2023-05-02T04:47:40;9.93;;;8.70;;
6955;SDS011;50345;51.136;16.886;2023-05-02T04:50:06;11.10;;;9.57;;
6955;SDS011;50345;51.136;16.886;2023-05-02T04:52:32;11.68;;;10.63;;
6955;SDS011;50345;51.136;16.886;2023-05-02T04:54:57;10.90;;;9.90;;
6955;SDS011;50345;51.136;16.886;2023-05-02T04:57:23;9.60;;;8.70;;
6955;SDS011;50345;51.136;16.886;2023-05-02T04:59:49;7.67;;;6.97;;
6955;SDS011;50345;51.136;16.886;2023-05-02T05:02:14;7.67;;;6.90;;
6955;SDS011;50345;51.136;16.886;2023-05-02T05:04:40;7.60;;;6.20;;
6955;SDS011;50345;51.136;16.886;2023-05-02T05:07:05;9.30;;;6.67;;
6955;SDS011;50345;51.136;16.886;2023-05-02T05:09:31;5.80;;;5.30;;
6955;SDS011;50345;51.136;16.886;2023-05-02T05:11:56;9.90;;;7.07;;
6955;SDS011;50345;51.136;16.886;2023-05-02T05:14:22;8.10;;;7.40;;
6955;SDS011;50345;51.136;16.886;2023-05-02T05:16:48;6.73;;;6.13;;
6955;SDS011;50345;51.136;16.886;2023-05-02T05:19:13;6.93;;;6.23;;
6955;SDS011;50345;51.136;16.886;2023-05-02T05:21:39;6.93;;;6.30;;
6955;SDS011;50345;51.136;16.886;2023-05-02T05:24:05;9.60;;;6.80;;
6955;SDS011;50345;51.136;16.886;2023-05-02T05:26:30;8.73;;;7.90;;
6955;SDS011;50345;51.136;16.886;2023-05-02T05:28:56;7.47;;;6.73;;
6955;SDS011;50345;51.136;16.886;2023-05-02T05:31:21;6.50;;;5.90;;
6955;SDS011;50345;51.136;16.886;2023-05-02T05:33:48;6.82;;;6.22;;
6955;SDS011;50345;51.136;16.886;2023-05-02T05:36:13;7.63;;;7.03;;
6955;SDS011;50345;51.136;16.886;2023-05-02T05:38:39;10.77;;;9.77;;
6955;SDS011;50345;51.136;16.886;2023-05-02T05:41:05;12.10;;;8.20;;
6955;SDS011;50345;51.136;16.886;2023-05-02T05:43:32;8.95;;;8.05;;
6955;SDS011;50345;51.136;16.886;2023-05-02T05:46:05;8.43;;;7.72;;
6955;SDS011;50345;51.136;16.886;2023-05-02T05:48:30;8.37;;;7.60;;
6955;SDS011;50345;51.136;16.886;2023-05-02T05:50:56;10.30;;;7.23;;
6955;SDS011;50345;51.136;16.886;2023-05-02T05:53:21;8.80;;;7.50;;
6955;SDS011;50345;51.136;16.886;2023-05-02T05:55:47;6.60;;;6.00;;
6955;SDS011;50345;51.136;16.886;2023-05-02T05:58:12;6.37;;;5.87;;
6955;SDS011;50345;51.136;16.886;2023-05-02T06:00:38;6.90;;;6.30;;
6955;SDS011;50345;51.136;16.886;2023-05-02T06:03:04;5.63;;;5.17;;
6955;SDS011;50345;51.136;16.886;2023-05-02T06:05:30;5.95;;;5.35;;
6955;SDS011;50345;51.136;16.886;2023-05-02T06:07:56;6.60;;;6.00;;
6955;SDS011;50345;51.136;16.886;2023-05-02T06:10:22;6.07;;;5.40;;
6955;SDS011;50345;51.136;16.886;2023-05-02T06:12:48;6.57;;;5.40;;
6955;SDS011;50345;51.136;16.886;2023-05-02T06:15:13;8.00;;;5.33;;
6955;SDS011;50345;51.136;16.886;2023-05-02T06:17:40;6.25;;;5.20;;
6955;SDS011;50345;51.136;16.886;2023-05-02T06:20:05;8.40;;;5.53;;
6955;SDS011;50345;51.136;16.886;2023-05-02T06:22:32;8.30;;;7.47;;
6955;SDS011;50345;51.136;16.886;2023-05-02T06:24:57;5.43;;;4.93;;
6955;SDS011;50345;51.136;16.886;2023-05-02T06:27:24;6.43;;;5.53;;
6955;SDS011;50345;51.136;16.886;2023-05-02T06:29:49;6.83;;;5.50;;
6955;SDS011;50345;51.136;16.886;2023-05-02T06:32:16;6.90;;;6.22;;
6955;SDS011;50345;51.136;16.886;2023-05-02T06:34:42;5.60;;;5.20;;
6955;SDS011;50345;51.136;16.886;2023-05-02T06:37:08;6.80;;;6.10;;
6955;SDS011;50345;51.136;16.886;2023-05-02T06:39:33;6.60;;;5.40;;
6955;SDS011;50345;51.136;16.886;2023-05-02T06:41:59;6.07;;;5.60;;
6955;SDS011;50345;51.136;16.886;2023-05-02T06:44:25;6.30;;;5.80;;
6955;SDS011;50345;51.136;16.886;2023-05-02T06:46:50;6.43;;;5.83;;
6955;SDS011;50345;51.136;16.886;2023-05-02T06:49:16;9.60;;;6.27;;
6955;SDS011;50345;51.136;16.886;2023-05-02T06:51:42;5.93;;;5.43;;
6955;SDS011;50345;51.136;16.886;2023-05-02T06:54:07;6.03;;;5.50;;
6955;SDS011;50345;51.136;16.886;2023-05-02T06:56:33;7.30;;;6.60;;
6955;SDS011;50345;51.136;16.886;2023-05-02T06:58:59;7.60;;;6.90;;
6955;SDS011;50345;51.136;16.886;2023-05-02T07:01:25;6.77;;;6.07;;
6955;SDS011;50345;51.136;16.886;2023-05-02T07:03:50;6.13;;;5.63;;
6955;SDS011;50345;51.136;16.886;2023-05-02T07:06:17;7.35;;;6.30;;
6955;SDS011;50345;51.136;16.886;2023-05-02T07:08:42;6.00;;;5.40;;
6955;SDS011;50345;51.136;16.886;2023-05-02T07:11:08;6.77;;;5.63;;
6955;SDS011;50345;51.136;16.886;2023-05-02T07:13:33;7.07;;;6.43;;
6955;SDS011;50345;51.136;16.886;2023-05-02T07:15:59;9.87;;;8.97;;
6955;SDS011;50345;51.136;16.886;2023-05-02T07:18:24;5.90;;;5.40;;
6955;SDS011;50345;51.136;16.886;2023-05-02T07:20:50;6.00;;;5.40;;
6955;SDS011;50345;51.136;16.886;2023-05-02T07:23:16;7.37;;;6.63;;
6955;SDS011;50345;51.136;16.886;2023-05-02T07:25:41;8.43;;;7.73;;
6955;SDS011;50345;51.136;16.886;2023-05-02T07:28:07;7.40;;;6.70;;
6955;SDS011;50345;51.136;16.886;2023-05-02T07:30:33;7.00;;;6.40;;
6955;SDS011;50345;51.136;16.886;2023-05-02T07:32:58;8.00;;;7.30;;
6955;SDS011;50345;51.136;16.886;2023-05-02T07:35:24;8.60;;;7.77;;
6955;SDS011;50345;51.136;16.886;2023-05-02T07:37:50;8.77;;;7.87;;
6955;SDS011;50345;51.136;16.886;2023-05-02T07:40:15;7.70;;;7.07;;
6955;SDS011;50345;51.136;16.886;2023-05-02T07:42:42;10.17;;;7.90;;
6955;SDS011;50345;51.136;16.886;2023-05-02T07:45:08;10.60;;;8.23;;
6955;SDS011;50345;51.136;16.886;2023-05-02T07:47:34;8.93;;;8.13;;
6955;SDS011;50345;51.136;16.886;2023-05-02T07:50:00;12.50;;;8.80;;
6955;SDS011;50345;51.136;16.886;2023-05-02T07:52:28;9.90;;;8.40;;
6955;SDS011;50345;51.136;16.886;2023-05-02T07:54:54;9.60;;;8.27;;
6955;SDS011;50345;51.136;16.886;2023-05-02T07:57:19;9.63;;;8.73;;
6955;SDS011;50345;51.136;16.886;2023-05-02T07:59:45;7.87;;;7.27;;
6955;SDS011;50345;51.136;16.886;2023-05-02T08:02:10;8.00;;;7.20;;
6955;SDS011;50345;51.136;16.886;2023-05-02T08:04:37;6.93;;;6.43;;
6955;SDS011;50345;51.136;16.886;2023-05-02T08:07:04;7.43;;;6.80;;
6955;SDS011;50345;51.136;16.886;2023-05-02T08:09:29;8.23;;;6.80;;
6955;SDS011;50345;51.136;16.886;2023-05-02T08:11:55;7.43;;;6.63;;
6955;SDS011;50345;51.136;16.886;2023-05-02T08:14:21;7.60;;;6.97;;
6955;SDS011;50345;51.136;16.886;2023-05-02T08:16:47;8.73;;;7.87;;
6955;SDS011;50345;51.136;16.886;2023-05-02T08:19:12;8.33;;;7.10;;
6955;SDS011;50345;51.136;16.886;2023-05-02T08:21:39;6.73;;;6.13;;
6955;SDS011;50345;51.136;16.886;2023-05-02T08:24:04;7.37;;;6.77;;
6955;SDS011;50345;51.136;16.886;2023-05-02T08:26:30;8.00;;;7.20;;
6955;SDS011;50345;51.136;16.886;2023-05-02T08:28:56;7.47;;;6.77;;
6955;SDS011;50345;51.136;16.886;2023-05-02T08:31:21;7.93;;;6.97;;
6955;SDS011;50345;51.136;16.886;2023-05-02T08:33:47;7.33;;;5.93;;
6955;SDS011;50345;51.136;16.886;2023-05-02T08:36:13;7.40;;;6.70;;
6955;SDS011;50345;51.136;16.886;2023-05-02T08:38:43;7.53;;;6.93;;
6955;SDS011;50345;51.136;16.886;2023-05-02T08:41:09;7.37;;;6.70;;
6955;SDS011;50345;51.136;16.886;2023-05-02T08:43:37;7.40;;;6.70;;
6955;SDS011;50345;51.136;16.886;2023-05-02T08:46:04;5.93;;;5.33;;
6955;SDS011;50345;51.136;16.886;2023-05-02T08:48:37;7.23;;;6.53;;
6955;SDS011;50345;51.136;16.886;2023-05-02T08:51:06;7.13;;;6.53;;
6955;SDS011;50345;51.136;16.886;2023-05-02T08:53:34;8.40;;;7.60;;
6955;SDS011;50345;51.136;16.886;2023-05-02T08:56:01;7.63;;;7.03;;
6955;SDS011;50345;51.136;16.886;2023-05-02T08:58:27;9.83;;;7.77;;
6955;SDS011;50345;51.136;16.886;2023-05-02T09:00:54;8.83;;;7.93;;
6955;SDS011;50345;51.136;16.886;2023-05-02T09:03:31;7.83;;;6.40;;
6955;SDS011;50345;51.136;16.886;2023-05-02T09:06:02;7.33;;;6.63;;
6955;SDS011;50345;51.136;16.886;2023-05-02T09:08:40;8.67;;;7.77;;
6955;SDS011;50345;51.136;16.886;2023-05-02T09:11:07;8.30;;;7.60;;
6955;SDS011;50345;51.136;16.886;2023-05-02T09:13:38;7.20;;;6.60;;
6955;SDS011;50345;51.136;16.886;2023-05-02T09:16:12;20.20;;;12.47;;
6955;SDS011;50345;51.136;16.886;2023-05-02T09:19:01;11.33;;;10.17;;
6955;SDS011;50345;51.136;16.886;2023-05-02T09:21:36;12.77;;;9.47;;
6955;SDS011;50345;51.136;16.886;2023-05-02T09:24:17;9.00;;;8.10;;
6955;SDS011;50345;51.136;16.886;2023-05-02T09:26:55;9.00;;;8.20;;
6955;SDS011;50345;51.136;16.886;2023-05-02T09:29:22;13.87;;;9.53;;
6955;SDS011;50345;51.136;16.886;2023-05-02T09:31:48;10.77;;;9.73;;
6955;SDS011;50345;51.136;16.886;2023-05-02T09:34:16;11.13;;;8.37;;
6955;SDS011;50345;51.136;16.886;2023-05-02T09:36:43;7.90;;;7.30;;
6955;SDS011;50345;51.136;16.886;2023-05-02T09:39:14;9.53;;;8.47;;
6955;SDS011;50345;51.136;16.886;2023-05-02T09:41:41;13.03;;;8.73;;
6955;SDS011;50345;51.136;16.886;2023-05-02T09:44:14;8.30;;;7.60;;
6955;SDS011;50345;51.136;16.886;2023-05-02T09:46:45;6.90;;;6.20;;
6955;SDS011;50345;51.136;16.886;2023-05-02T09:49:12;10.37;;;7.13;;
6955;SDS011;50345;51.136;16.886;2023-05-02T09:51:38;8.33;;;6.90;;
6955;SDS011;50345;51.136;16.886;2023-05-02T09:54:04;8.50;;;6.67;;
6955;SDS011;50345;51.136;16.886;2023-05-02T09:56:30;12.30;;;7.97;;
6955;SDS011;50345;51.136;16.886;2023-05-02T09:59:14;11.70;;;8.10;;
6955;SDS011;50345;51.136;16.886;2023-05-02T10:01:40;8.30;;;7.60;;
6955;SDS011;50345;51.136;16.886;2023-05-02T10:04:13;8.33;;;7.63;;
6955;SDS011;50345;51.136;16.886;2023-05-02T10:06:43;8.50;;;7.60;;
6955;SDS011;50345;51.136;16.886;2023-05-02T10:09:09;8.53;;;7.63;;
6955;SDS011;50345;51.136;16.886;2023-05-02T10:11:41;7.10;;;6.50;;
6955;SDS011;50345;51.136;16.886;2023-05-02T10:14:08;10.70;;;9.60;;
6955;SDS011;50345;51.136;16.886;2023-05-02T10:16:35;9.23;;;7.70;;
6955;SDS011;50345;51.136;16.886;2023-05-02T10:19:06;8.37;;;7.20;;
6955;SDS011;50345;51.136;16.886;2023-05-02T10:21:33;7.90;;;7.13;;
6955;SDS011;50345;51.136;16.886;2023-05-02T10:24:01;7.00;;;6.37;;
6955;SDS011;50345;51.136;16.886;2023-05-02T10:26:30;7.50;;;6.80;;
6955;SDS011;50345;51.136;16.886;2023-05-02T10:28:58;12.07;;;10.00;;
6955;SDS011;50345;51.136;16.886;2023-05-02T10:31:25;8.00;;;7.30;;
6955;SDS011;50345;51.136;16.886;2023-05-02T10:33:57;10.20;;;7.30;;
6955;SDS011;50345;51.136;16.886;2023-05-02T10:36:25;7.90;;;6.97;;
6955;SDS011;50345;51.136;16.886;2023-05-02T10:38:52;8.23;;;7.13;;
6955;SDS011;50345;51.136;16.886;2023-05-02T10:41:20;8.53;;;7.77;;
6955;SDS011;50345;51.136;16.886;2023-05-02T10:43:48;7.67;;;7.07;;
6955;SDS011;50345;51.136;16.886;2023-05-02T10:49:01;7.40;;;6.80;;
6955;SDS011;50345;51.136;16.886;2023-05-02T10:51:28;9.13;;;6.43;;
6955;SDS011;50345;51.136;16.886;2023-05-02T10:54:17;6.63;;;6.03;;
6955;SDS011;50345;51.136;16.886;2023-05-02T10:59:30;7.67;;;6.97;;
6955;SDS011;50345;51.136;16.886;2023-05-02T11:01:57;7.90;;;7.10;;
6955;SDS011;50345;51.136;16.886;2023-05-02T11:04:24;8.13;;;7.37;;
6955;SDS011;50345;51.136;16.886;2023-05-02T11:11:47;6.93;;;6.33;;
6955;SDS011;50345;51.136;16.886;2023-05-02T11:19:21;8.00;;;7.30;;
6955;SDS011;50345;51.136;16.886;2023-05-02T11:21:47;10.00;;;7.97;;
6955;SDS011;50345;51.136;16.886;2023-05-02T11:29:59;9.77;;;6.90;;
6955;SDS011;50345;51.136;16.886;2023-05-02T11:37:54;10.37;;;7.83;;
6955;SDS011;50345;51.136;16.886;2023-05-02T11:40:20;8.03;;;7.23;;
6955;SDS011;50345;51.136;16.886;2023-05-02T11:42:46;8.33;;;7.30;;
6955;SDS011;50345;51.136;16.886;2023-05-02T11:45:12;8.43;;;7.20;;
6955;SDS011;50345;51.136;16.886;2023-05-02T11:47:38;9.20;;;8.40;;
6955;SDS011;50345;51.136;16.886;2023-05-02T11:50:05;14.73;;;8.53;;
6955;SDS011;50345;51.136;16.886;2023-05-02T11:52:35;7.67;;;7.00;;
6955;SDS011;50345;51.136;16.886;2023-05-02T11:55:02;8.33;;;7.63;;
6955;SDS011;50345;51.136;16.886;2023-05-02T11:57:35;8.60;;;6.80;;
6955;SDS011;50345;51.136;16.886;2023-05-02T12:00:01;7.97;;;7.33;;
6955;SDS011;50345;51.136;16.886;2023-05-02T12:02:38;7.60;;;6.60;;
6955;SDS011;50345;51.136;16.886;2023-05-02T12:05:08;9.10;;;8.40;;
6955;SDS011;50345;51.136;16.886;2023-05-02T12:07:36;7.97;;;6.83;;
6955;SDS011;50345;51.136;16.886;2023-05-02T12:10:06;7.23;;;6.70;;
6955;SDS011;50345;51.136;16.886;2023-05-02T12:12:33;8.07;;;6.63;;
6955;SDS011;50345;51.136;16.886;2023-05-02T12:15:02;5.70;;;5.30;;
6955;SDS011;50345;51.136;16.886;2023-05-02T12:17:33;6.30;;;5.80;;
6955;SDS011;50345;51.136;16.886;2023-05-02T12:20:07;6.90;;;6.27;;
6955;SDS011;50345;51.136;16.886;2023-05-02T12:22:34;6.00;;;5.50;;
6955;SDS011;50345;51.136;16.886;2023-05-02T12:24:59;7.50;;;5.10;;
6955;SDS011;50345;51.136;16.886;2023-05-02T12:27:27;5.27;;;4.87;;
6955;SDS011;50345;51.136;16.886;2023-05-02T12:29:53;4.53;;;4.20;;
6955;SDS011;50345;51.136;16.886;2023-05-02T12:32:28;5.27;;;4.83;;
6955;SDS011;50345;51.136;16.886;2023-05-02T12:34:56;7.40;;;5.70;;
6955;SDS011;50345;51.136;16.886;2023-05-02T12:37:22;7.07;;;6.33;;
6955;SDS011;50345;51.136;16.886;2023-05-02T12:39:52;6.33;;;5.70;;
6955;SDS011;50345;51.136;16.886;2023-05-02T12:42:20;5.83;;;5.43;;
6955;SDS011;50345;51.136;16.886;2023-05-02T12:44:48;6.00;;;5.50;;
6955;SDS011;50345;51.136;16.886;2023-05-02T12:47:18;6.67;;;5.60;;
6955;SDS011;50345;51.136;16.886;2023-05-02T12:55:19;7.17;;;5.13;;
6955;SDS011;50345;51.136;16.886;2023-05-02T12:57:48;5.30;;;4.80;;
6955;SDS011;50345;51.136;16.886;2023-05-02T13:00:17;4.87;;;4.43;;
6955;SDS011;50345;51.136;16.886;2023-05-02T13:02:42;6.33;;;4.70;;
6955;SDS011;50345;51.136;16.886;2023-05-02T13:05:14;5.43;;;5.03;;
6955;SDS011;50345;51.136;16.886;2023-05-02T13:07:40;6.67;;;5.60;;
6955;SDS011;50345;51.136;16.886;2023-05-02T13:10:06;5.37;;;4.90;;
6955;SDS011;50345;51.136;16.886;2023-05-02T13:12:32;5.00;;;4.60;;
6955;SDS011;50345;51.136;16.886;2023-05-02T13:15:01;5.63;;;5.23;;
6955;SDS011;50345;51.136;16.886;2023-05-02T13:17:28;5.53;;;4.97;;
6955;SDS011;50345;51.136;16.886;2023-05-02T13:19:54;6.17;;;5.73;;
6955;SDS011;50345;51.136;16.886;2023-05-02T13:22:19;6.70;;;6.10;;
6955;SDS011;50345;51.136;16.886;2023-05-02T13:24:45;6.87;;;6.27;;
6955;SDS011;50345;51.136;16.886;2023-05-02T13:27:11;5.47;;;5.07;;
6955;SDS011;50345;51.136;16.886;2023-05-02T13:29:37;5.83;;;5.40;;
6955;SDS011;50345;51.136;16.886;2023-05-02T13:32:02;5.00;;;4.70;;
6955;SDS011;50345;51.136;16.886;2023-05-02T13:34:28;4.17;;;3.87;;
6955;SDS011;50345;51.136;16.886;2023-05-02T13:36:53;5.03;;;4.63;;
6955;SDS011;50345;51.136;16.886;2023-05-02T13:39:19;4.90;;;4.60;;
6955;SDS011;50345;51.136;16.886;2023-05-02T13:41:44;4.73;;;4.33;;
6955;SDS011;50345;51.136;16.886;2023-05-02T13:44:10;4.67;;;4.37;;
6955;SDS011;50345;51.136;16.886;2023-05-02T13:46:35;5.57;;;5.17;;
6955;SDS011;50345;51.136;16.886;2023-05-02T13:49:02;7.10;;;4.80;;
6955;SDS011;50345;51.136;16.886;2023-05-02T13:51:28;5.57;;;5.10;;
6955;SDS011;50345;51.136;16.886;2023-05-02T13:53:57;5.50;;;5.10;;
6955;SDS011;50345;51.136;16.886;2023-05-02T13:56:23;5.63;;;5.07;;
6955;SDS011;50345;51.136;16.886;2023-05-02T13:58:49;8.03;;;5.43;;
6955;SDS011;50345;51.136;16.886;2023-05-02T14:01:15;5.60;;;5.10;;
6955;SDS011;50345;51.136;16.886;2023-05-02T14:03:40;6.17;;;5.77;;
6955;SDS011;50345;51.136;16.886;2023-05-02T14:06:07;6.00;;;5.40;;
6955;SDS011;50345;51.136;16.886;2023-05-02T14:08:39;5.87;;;5.37;;
6955;SDS011;50345;51.136;16.886;2023-05-02T14:11:04;5.40;;;5.00;;
6955;SDS011;50345;51.136;16.886;2023-05-02T14:13:30;6.27;;;5.70;;
6955;SDS011;50345;51.136;16.886;2023-05-02T14:15:55;6.87;;;5.30;;
6955;SDS011;50345;51.136;16.886;2023-05-02T14:18:22;6.07;;;5.57;;
6955;SDS011;50345;51.136;16.886;2023-05-02T14:20:48;7.07;;;6.30;;
6955;SDS011;50345;51.136;16.886;2023-05-02T14:23:13;6.03;;;5.43;;
6955;SDS011;50345;51.136;16.886;2023-05-02T14:25:39;5.00;;;4.60;;
6955;SDS011;50345;51.136;16.886;2023-05-02T14:28:05;5.57;;;5.17;;
6955;SDS011;50345;51.136;16.886;2023-05-02T14:30:30;5.67;;;5.23;;
6955;SDS011;50345;51.136;16.886;2023-05-02T14:32:56;6.07;;;4.97;;
6955;SDS011;50345;51.136;16.886;2023-05-02T14:35:22;5.70;;;5.20;;
6955;SDS011;50345;51.136;16.886;2023-05-02T14:37:47;7.47;;;4.87;;
6955;SDS011;50345;51.136;16.886;2023-05-02T14:40:13;4.90;;;4.50;;
6955;SDS011;50345;51.136;16.886;2023-05-02T14:42:39;5.13;;;4.70;;
6955;SDS011;50345;51.136;16.886;2023-05-02T14:45:05;7.30;;;6.57;;
6955;SDS011;50345;51.136;16.886;2023-05-02T14:47:32;5.93;;;5.53;;
6955;SDS011;50345;51.136;16.886;2023-05-02T14:49:58;6.20;;;5.43;;
6955;SDS011;50345;51.136;16.886;2023-05-02T14:52:24;5.50;;;5.00;;
6955;SDS011;50345;51.136;16.886;2023-05-02T14:54:50;5.87;;;4.77;;
6955;SDS011;50345;51.136;16.886;2023-05-02T14:57:17;5.40;;;4.90;;
6955;SDS011;50345;51.136;16.886;2023-05-02T14:59:42;9.10;;;5.40;;
6955;SDS011;50345;51.136;16.886;2023-05-02T15:02:08;7.50;;;6.43;;
6955;SDS011;50345;51.136;16.886;2023-05-02T15:04:34;5.93;;;5.33;;
6955;SDS011;50345;51.136;16.886;2023-05-02T15:06:59;5.07;;;4.67;;
6955;SDS011;50345;51.136;16.886;2023-05-02T15:09:25;5.30;;;4.50;;
6955;SDS011;50345;51.136;16.886;2023-05-02T15:11:51;5.90;;;5.20;;
6955;SDS011;50345;51.136;16.886;2023-05-02T15:14:17;4.97;;;4.57;;
6955;SDS011;50345;51.136;16.886;2023-05-02T15:16:42;4.10;;;3.70;;
6955;SDS011;50345;51.136;16.886;2023-05-02T15:19:08;10.17;;;4.17;;
6955;SDS011;50345;51.136;16.886;2023-05-02T15:21:34;5.13;;;4.17;;
6955;SDS011;50345;51.136;16.886;2023-05-02T15:24:00;4.30;;;3.90;;
6955;SDS011;50345;51.136;16.886;2023-05-02T15:26:26;4.20;;;3.90;;
6955;SDS011;50345;51.136;16.886;2023-05-02T15:28:52;5.57;;;5.17;;
6955;SDS011;50345;51.136;16.886;2023-05-02T15:31:18;8.73;;;8.00;;
6955;SDS011;50345;51.136;16.886;2023-05-02T15:33:44;5.90;;;5.50;;
6955;SDS011;50345;51.136;16.886;2023-05-02T15:36:09;5.93;;;5.40;;
6955;SDS011;50345;51.136;16.886;2023-05-02T15:38:35;5.60;;;4.90;;
6955;SDS011;50345;51.136;16.886;2023-05-02T15:41:03;5.40;;;4.90;;